sensor_id;sensor_type;location;lat;lon;timestamp;pressure;altitude;pressure_sealevel;temperature;humidity
67430;BME280;54298;52.076;5.264;2023-03-13T00:01:47;100081.0;;;10.18;86.24
67430;BME280;54298;52.076;5.264;2023-03-13T00:03:25;100077.0;;;10.24;85.91
67430;BME280;54298;52.076;5.264;2023-03-13T00:05:03;100067.0;;;10.33;85.59
67430;BME280;54298;52.076;5.264;2023-03-13T00:06:40;100060.0;;;10.44;85.21
67430;BME280;54298;52.076;5.264;2023-03-13T00:09:53;100053.0;;;10.25;85.83
67430;BME280;54298;52.076;5.264;2023-03-13T00:11:30;100050.0;;;10.29;86.08
67430;BME280;54298;52.076;5.264;2023-03-13T00:13:07;100047.0;;;10.27;86.15
67430;BME280;54298;52.076;5.264;2023-03-13T00:16:21;100046.0;;;10.26;86.39
67430;BME280;54298;52.076;5.264;2023-03-13T00:17:58;100044.0;;;10.19;87.05
67430;BME280;54298;52.076;5.264;2023-03-13T00:19:35;100047.0;;;10.27;86.86
67430;BME280;54298;52.076;5.264;2023-03-13T00:22:48;100040.0;;;10.37;86.74
67430;BME280;54298;52.076;5.264;2023-03-13T00:24:24;100024.0;;;10.24;87.83
67430;BME280;54298;52.076;5.264;2023-03-13T00:26:04;100030.0;;;10.29;88.26
67430;BME280;54298;52.076;5.264;2023-03-13T00:27:41;100020.0;;;10.23;89.14
67430;BME280;54298;52.076;5.264;2023-03-13T00:31:00;100012.0;;;10.23;89.15
67430;BME280;54298;52.076;5.264;2023-03-13T00:32:41;100005.0;;;10.3;89.49
67430;BME280;54298;52.076;5.264;2023-03-13T00:34:19;100006.0;;;10.36;89.31
67430;BME280;54298;52.076;5.264;2023-03-13T00:37:34;99990.0;;;10.23;90.14
67430;BME280;54298;52.076;5.264;2023-03-13T00:39:11;99982.0;;;10.18;90.8
67430;BME280;54298;52.076;5.264;2023-03-13T00:40:47;99974.0;;;10.27;90.87
67430;BME280;54298;52.076;5.264;2023-03-13T00:42:24;99966.0;;;10.17;91.6
67430;BME280;54298;52.076;5.264;2023-03-13T00:45:38;99962.0;;;10.14;91.91
67430;BME280;54298;52.076;5.264;2023-03-13T00:47:14;99955.0;;;10.05;92.78
67430;BME280;54298;52.076;5.264;2023-03-13T00:48:51;99955.0;;;10.03;93.33
67430;BME280;54298;52.076;5.264;2023-03-13T00:52:05;99951.0;;;10.14;93.0
67430;BME280;54298;52.076;5.264;2023-03-13T00:53:42;99944.0;;;10.24;92.83
67430;BME280;54298;52.076;5.264;2023-03-13T00:55:20;99943.0;;;10.3;92.46
67430;BME280;54298;52.076;5.264;2023-03-13T00:56:56;99936.0;;;10.11;93.54
67430;BME280;54298;52.076;5.264;2023-03-13T01:00:12;99927.0;;;10.13;93.91
67430;BME280;54298;52.076;5.264;2023-03-13T01:01:49;99925.0;;;10.15;93.61
67430;BME280;54298;52.076;5.264;2023-03-13T01:03:25;99917.0;;;10.16;93.76
67430;BME280;54298;52.076;5.264;2023-03-13T01:06:39;99911.0;;;10.18;93.58
67430;BME280;54298;52.076;5.264;2023-03-13T01:08:17;99905.0;;;10.0;94.85
67430;BME280;54298;52.076;5.264;2023-03-13T01:09:54;99900.0;;;10.05;94.96
67430;BME280;54298;52.076;5.264;2023-03-13T01:11:33;99899.0;;;10.07;94.52
67430;BME280;54298;52.076;5.264;2023-03-13T01:14:48;99893.0;;;9.93;95.23
67430;BME280;54298;52.076;5.264;2023-03-13T01:16:27;99891.0;;;9.98;95.82
67430;BME280;54298;52.076;5.264;2023-03-13T01:18:04;99887.0;;;10.06;95.57
67430;BME280;54298;52.076;5.264;2023-03-13T01:21:18;99888.0;;;10.09;95.2
67430;BME280;54298;52.076;5.264;2023-03-13T01:22:57;99882.0;;;10.22;94.85
67430;BME280;54298;52.076;5.264;2023-03-13T01:24:34;99878.0;;;10.11;95.22
67430;BME280;54298;52.076;5.264;2023-03-13T01:26:10;99870.0;;;10.1;95.52
67430;BME280;54298;52.076;5.264;2023-03-13T01:29:24;99866.0;;;10.14;95.28
67430;BME280;54298;52.076;5.264;2023-03-13T01:31:09;99861.0;;;10.15;95.82
67430;BME280;54298;52.076;5.264;2023-03-13T01:32:47;99851.0;;;10.25;95.33
67430;BME280;54298;52.076;5.264;2023-03-13T01:36:00;99840.0;;;10.3;95.14
67430;BME280;54298;52.076;5.264;2023-03-13T01:37:37;99836.0;;;10.37;94.78
67430;BME280;54298;52.076;5.264;2023-03-13T01:39:13;99834.0;;;10.28;95.05
67430;BME280;54298;52.076;5.264;2023-03-13T01:40:49;99824.0;;;10.43;94.91
67430;BME280;54298;52.076;5.264;2023-03-13T01:44:02;99823.0;;;10.4;95.05
67430;BME280;54298;52.076;5.264;2023-03-13T01:46:13;99819.0;;;10.46;95.07
67430;BME280;54298;52.076;5.264;2023-03-13T01:47:53;99809.0;;;10.37;95.66
67430;BME280;54298;52.076;5.264;2023-03-13T01:49:31;99809.0;;;10.48;95.32
67430;BME280;54298;52.076;5.264;2023-03-13T01:52:51;99810.0;;;10.48;95.42
67430;BME280;54298;52.076;5.264;2023-03-13T01:54:31;99797.0;;;10.59;95.16
67430;BME280;54298;52.076;5.264;2023-03-13T01:56:16;99805.0;;;10.64;94.98
67430;BME280;54298;52.076;5.264;2023-03-13T01:57:55;99795.0;;;10.57;95.6
67430;BME280;54298;52.076;5.264;2023-03-13T02:01:19;99783.0;;;10.54;95.76
67430;BME280;54298;52.076;5.264;2023-03-13T02:02:59;99776.0;;;10.49;96.04
67430;BME280;54298;52.076;5.264;2023-03-13T02:04:41;99769.0;;;10.63;95.92
67430;BME280;54298;52.076;5.264;2023-03-13T02:06:21;99773.0;;;10.49;96.85
67430;BME280;54298;52.076;5.264;2023-03-13T02:08:03;99763.0;;;10.53;96.93
67430;BME280;54298;52.076;5.264;2023-03-13T02:11:28;99753.0;;;10.69;96.35
67430;BME280;54298;52.076;5.264;2023-03-13T02:13:07;99747.0;;;10.75;95.83
67430;BME280;54298;52.076;5.264;2023-03-13T02:14:45;99739.0;;;10.86;95.43
67430;BME280;54298;52.076;5.264;2023-03-13T02:16:21;99728.0;;;10.79;96.05
67430;BME280;54298;52.076;5.264;2023-03-13T02:19:39;99720.0;;;10.85;96.0
67430;BME280;54298;52.076;5.264;2023-03-13T02:21:25;99706.0;;;10.79;96.34
67430;BME280;54298;52.076;5.264;2023-03-13T02:23:18;99713.0;;;10.92;96.36
67430;BME280;54298;52.076;5.264;2023-03-13T02:25:02;99707.0;;;10.82;96.94
67430;BME280;54298;52.076;5.264;2023-03-13T02:28:22;99702.0;;;10.9;96.99
67430;BME280;54298;52.076;5.264;2023-03-13T02:30:00;99699.0;;;11.03;96.33
67430;BME280;54298;52.076;5.264;2023-03-13T02:31:38;99699.0;;;10.95;96.54
67430;BME280;54298;52.076;5.264;2023-03-13T02:33:15;99689.0;;;10.91;97.38
67430;BME280;54298;52.076;5.264;2023-03-13T02:36:32;99690.0;;;10.91;97.38
67430;BME280;54298;52.076;5.264;2023-03-13T02:38:11;99690.0;;;11.05;97.48
67430;BME280;54298;52.076;5.264;2023-03-13T02:39:51;99690.0;;;11.03;97.25
67430;BME280;54298;52.076;5.264;2023-03-13T02:41:30;99694.0;;;11.02;97.92
67430;BME280;54298;52.076;5.264;2023-03-13T02:44:50;99691.0;;;11.13;97.29
67430;BME280;54298;52.076;5.264;2023-03-13T02:46:26;99682.0;;;11.02;98.3
67430;BME280;54298;52.076;5.264;2023-03-13T02:48:02;99677.0;;;11.07;98.19
67430;BME280;54298;52.076;5.264;2023-03-13T02:51:18;99675.0;;;11.14;98.35
67430;BME280;54298;52.076;5.264;2023-03-13T02:53:00;99678.0;;;11.17;98.36
67430;BME280;54298;52.076;5.264;2023-03-13T02:54:39;99680.0;;;11.23;98.19
67430;BME280;54298;52.076;5.264;2023-03-13T02:56:20;99680.0;;;11.32;98.15
67430;BME280;54298;52.076;5.264;2023-03-13T02:59:35;99675.0;;;11.32;98.57
67430;BME280;54298;52.076;5.264;2023-03-13T03:01:11;99685.0;;;11.39;98.29
67430;BME280;54298;52.076;5.264;2023-03-13T03:02:47;99680.0;;;11.38;98.41
67430;BME280;54298;52.076;5.264;2023-03-13T03:06:02;99685.0;;;11.43;98.36
67430;BME280;54298;52.076;5.264;2023-03-13T03:07:40;99683.0;;;11.46;98.44
67430;BME280;54298;52.076;5.264;2023-03-13T03:09:16;99681.0;;;11.45;99.0
67430;BME280;54298;52.076;5.264;2023-03-13T03:10:53;99680.0;;;11.52;98.77
67430;BME280;54298;52.076;5.264;2023-03-13T03:14:06;99671.0;;;11.56;98.66
67430;BME280;54298;52.076;5.264;2023-03-13T03:15:43;99677.0;;;11.63;98.63
67430;BME280;54298;52.076;5.264;2023-03-13T03:17:19;99671.0;;;11.63;98.58
67430;BME280;54298;52.076;5.264;2023-03-13T03:20:31;99678.0;;;11.68;98.57
67430;BME280;54298;52.076;5.264;2023-03-13T03:22:08;99669.0;;;11.6;99.18
67430;BME280;54298;52.076;5.264;2023-03-13T03:23:45;99680.0;;;11.72;99.11
67430;BME280;54298;52.076;5.264;2023-03-13T03:26:57;99660.0;;;11.71;99.22
67430;BME280;54298;52.076;5.264;2023-03-13T03:28:33;99669.0;;;11.79;98.67
67430;BME280;54298;52.076;5.264;2023-03-13T03:30:10;99651.0;;;11.8;98.74
67430;BME280;54298;52.076;5.264;2023-03-13T03:31:46;99659.0;;;11.89;98.36
67430;BME280;54298;52.076;5.264;2023-03-13T03:34:59;99655.0;;;11.84;98.61
67430;BME280;54298;52.076;5.264;2023-03-13T03:36:36;99653.0;;;11.9;98.54
67430;BME280;54298;52.076;5.264;2023-03-13T03:38:12;99651.0;;;11.95;98.3
67430;BME280;54298;52.076;5.264;2023-03-13T03:41:24;99664.0;;;11.97;98.14
67430;BME280;54298;52.076;5.264;2023-03-13T03:43:00;99651.0;;;11.97;98.11
67430;BME280;54298;52.076;5.264;2023-03-13T03:44:36;99655.0;;;12.07;97.7
67430;BME280;54298;52.076;5.264;2023-03-13T03:47:50;99642.0;;;12.04;98.09
67430;BME280;54298;52.076;5.264;2023-03-13T03:49:26;99641.0;;;12.08;98.05
67430;BME280;54298;52.076;5.264;2023-03-13T03:51:02;99653.0;;;12.0;98.18
67430;BME280;54298;52.076;5.264;2023-03-13T03:52:39;99643.0;;;12.12;98.01
67430;BME280;54298;52.076;5.264;2023-03-13T03:55:51;99635.0;;;12.1;98.1
67430;BME280;54298;52.076;5.264;2023-03-13T03:57:27;99636.0;;;12.11;98.21
67430;BME280;54298;52.076;5.264;2023-03-13T03:59:03;99645.0;;;12.09;98.16
67430;BME280;54298;52.076;5.264;2023-03-13T04:02:19;99638.0;;;12.11;98.37
67430;BME280;54298;52.076;5.264;2023-03-13T04:03:55;99635.0;;;12.07;98.45
67430;BME280;54298;52.076;5.264;2023-03-13T04:05:31;99633.0;;;12.1;98.48
67430;BME280;54298;52.076;5.264;2023-03-13T04:08:43;99631.0;;;12.1;98.54
67430;BME280;54298;52.076;5.264;2023-03-13T04:10:19;99620.0;;;12.05;98.7
67430;BME280;54298;52.076;5.264;2023-03-13T04:11:55;99627.0;;;12.07;98.69
67430;BME280;54298;52.076;5.264;2023-03-13T04:13:31;99619.0;;;12.09;98.47
67430;BME280;54298;52.076;5.264;2023-03-13T04:16:45;99618.0;;;12.19;98.24
67430;BME280;54298;52.076;5.264;2023-03-13T04:18:21;99614.0;;;12.27;97.76
67430;BME280;54298;52.076;5.264;2023-03-13T04:19:57;99620.0;;;12.28;97.61
67430;BME280;54298;52.076;5.264;2023-03-13T04:23:09;99619.0;;;12.31;96.9
67430;BME280;54298;52.076;5.264;2023-03-13T04:24:46;99608.0;;;12.29;97.15
67430;BME280;54298;52.076;5.264;2023-03-13T04:26:22;99608.0;;;12.28;97.41
67430;BME280;54298;52.076;5.264;2023-03-13T04:29:35;99607.0;;;12.29;97.3
67430;BME280;54298;52.076;5.264;2023-03-13T04:31:11;99598.0;;;12.36;97.01
67430;BME280;54298;52.076;5.264;2023-03-13T04:32:47;99601.0;;;12.34;96.95
67430;BME280;54298;52.076;5.264;2023-03-13T04:35:59;99601.0;;;12.28;97.4
67430;BME280;54298;52.076;5.264;2023-03-13T04:37:35;99588.0;;;12.35;97.13
67430;BME280;54298;52.076;5.264;2023-03-13T04:39:11;99586.0;;;12.38;97.02
67430;BME280;54298;52.076;5.264;2023-03-13T04:40:48;99580.0;;;12.42;96.5
67430;BME280;54298;52.076;5.264;2023-03-13T04:44:00;99585.0;;;12.46;96.29
67430;BME280;54298;52.076;5.264;2023-03-13T04:45:36;99585.0;;;12.5;95.82
67430;BME280;54298;52.076;5.264;2023-03-13T04:47:12;99576.0;;;12.48;95.46
67430;BME280;54298;52.076;5.264;2023-03-13T04:50:24;99578.0;;;12.52;95.08
67430;BME280;54298;52.076;5.264;2023-03-13T04:52:01;99576.0;;;12.56;95.06
67430;BME280;54298;52.076;5.264;2023-03-13T04:53:36;99571.0;;;12.59;94.54
67430;BME280;54298;52.076;5.264;2023-03-13T04:56:49;99567.0;;;12.6;94.43
67430;BME280;54298;52.076;5.264;2023-03-13T04:58:25;99571.0;;;12.61;94.05
67430;BME280;54298;52.076;5.264;2023-03-13T05:00:01;99565.0;;;12.62;93.7
67430;BME280;54298;52.076;5.264;2023-03-13T05:01:37;99570.0;;;12.63;93.84
67430;BME280;54298;52.076;5.264;2023-03-13T05:04:51;99574.0;;;12.6;93.78
67430;BME280;54298;52.076;5.264;2023-03-13T05:06:27;99568.0;;;12.7;93.04
67430;BME280;54298;52.076;5.264;2023-03-13T05:08:04;99567.0;;;12.71;92.83
67430;BME280;54298;52.076;5.264;2023-03-13T05:11:16;99565.0;;;12.74;92.41
67430;BME280;54298;52.076;5.264;2023-03-13T05:12:52;99572.0;;;12.83;91.77
67430;BME280;54298;52.076;5.264;2023-03-13T05:14:28;99566.0;;;12.84;91.65
67430;BME280;54298;52.076;5.264;2023-03-13T05:17:42;99563.0;;;12.79;91.46
67430;BME280;54298;52.076;5.264;2023-03-13T05:19:18;99557.0;;;12.81;91.47
67430;BME280;54298;52.076;5.264;2023-03-13T05:20:55;99567.0;;;12.8;91.15
67430;BME280;54298;52.076;5.264;2023-03-13T05:22:31;99570.0;;;12.79;91.06
67430;BME280;54298;52.076;5.264;2023-03-13T05:25:43;99553.0;;;12.79;90.97
67430;BME280;54298;52.076;5.264;2023-03-13T05:27:19;99586.0;;;12.84;90.49
67430;BME280;54298;52.076;5.264;2023-03-13T05:28:55;99557.0;;;12.82;89.45
67430;BME280;54298;52.076;5.264;2023-03-13T05:32:08;99560.0;;;12.93;88.95
67430;BME280;54298;52.076;5.264;2023-03-13T05:33:44;99562.0;;;12.94;88.35
67430;BME280;54298;52.076;5.264;2023-03-13T05:35:20;99553.0;;;12.99;87.3
67430;BME280;54298;52.076;5.264;2023-03-13T05:38:32;99565.0;;;13.01;86.66
67430;BME280;54298;52.076;5.264;2023-03-13T05:40:10;99556.0;;;13.03;86.17
67430;BME280;54298;52.076;5.264;2023-03-13T05:41:47;99546.0;;;13.04;86.03
67430;BME280;54298;52.076;5.264;2023-03-13T05:44:59;99550.0;;;13.08;85.8
67430;BME280;54298;52.076;5.264;2023-03-13T05:46:35;99570.0;;;13.1;85.43
67430;BME280;54298;52.076;5.264;2023-03-13T05:48:12;99561.0;;;13.14;85.01
67430;BME280;54298;52.076;5.264;2023-03-13T05:49:48;99550.0;;;13.15;84.79
67430;BME280;54298;52.076;5.264;2023-03-13T05:53:00;99539.0;;;13.15;84.39
67430;BME280;54298;52.076;5.264;2023-03-13T05:54:36;99528.0;;;13.2;84.09
67430;BME280;54298;52.076;5.264;2023-03-13T05:56:12;99533.0;;;13.25;83.62
67430;BME280;54298;52.076;5.264;2023-03-13T05:59:25;99530.0;;;13.33;83.42
67430;BME280;54298;52.076;5.264;2023-03-13T06:01:06;99519.0;;;13.31;82.94
67430;BME280;54298;52.076;5.264;2023-03-13T06:02:42;99513.0;;;13.37;82.42
67430;BME280;54298;52.076;5.264;2023-03-13T06:05:56;99526.0;;;13.36;82.68
67430;BME280;54298;52.076;5.264;2023-03-13T06:07:33;99523.0;;;13.38;82.64
67430;BME280;54298;52.076;5.264;2023-03-13T06:09:09;99519.0;;;13.36;82.55
67430;BME280;54298;52.076;5.264;2023-03-13T06:10:45;99511.0;;;13.31;82.66
67430;BME280;54298;52.076;5.264;2023-03-13T06:13:57;99516.0;;;13.31;82.74
67430;BME280;54298;52.076;5.264;2023-03-13T06:15:34;99514.0;;;13.23;83.04
67430;BME280;54298;52.076;5.264;2023-03-13T06:17:10;99514.0;;;13.28;83.04
67430;BME280;54298;52.076;5.264;2023-03-13T06:20:22;99513.0;;;13.3;83.1
67430;BME280;54298;52.076;5.264;2023-03-13T06:21:58;99517.0;;;13.36;83.01
67430;BME280;54298;52.076;5.264;2023-03-13T06:23:34;99516.0;;;13.38;82.97
67430;BME280;54298;52.076;5.264;2023-03-13T06:26:48;99510.0;;;13.39;82.89
67430;BME280;54298;52.076;5.264;2023-03-13T06:28:25;99506.0;;;13.23;83.19
67430;BME280;54298;52.076;5.264;2023-03-13T06:30:01;99512.0;;;13.27;83.31
67430;BME280;54298;52.076;5.264;2023-03-13T06:31:37;99515.0;;;13.2;83.16
67430;BME280;54298;52.076;5.264;2023-03-13T06:34:49;99510.0;;;13.25;83.09
67430;BME280;54298;52.076;5.264;2023-03-13T06:36:25;99498.0;;;13.29;82.93
67430;BME280;54298;52.076;5.264;2023-03-13T06:38:01;99515.0;;;13.3;82.69
67430;BME280;54298;52.076;5.264;2023-03-13T06:41:14;99511.0;;;13.34;82.24
67430;BME280;54298;52.076;5.264;2023-03-13T06:42:50;99517.0;;;13.4;82.01
67430;BME280;54298;52.076;5.264;2023-03-13T06:44:26;99514.0;;;13.37;82.01
67430;BME280;54298;52.076;5.264;2023-03-13T06:47:39;99523.0;;;13.33;81.96
67430;BME280;54298;52.076;5.264;2023-03-13T06:49:15;99519.0;;;13.39;81.8
67430;BME280;54298;52.076;5.264;2023-03-13T06:50:51;99524.0;;;13.38;81.77
67430;BME280;54298;52.076;5.264;2023-03-13T06:52:27;99516.0;;;13.47;81.58
67430;BME280;54298;52.076;5.264;2023-03-13T06:55:40;99521.0;;;13.44;81.33
67430;BME280;54298;52.076;5.264;2023-03-13T06:57:16;99526.0;;;13.49;81.33
67430;BME280;54298;52.076;5.264;2023-03-13T06:58:52;99519.0;;;13.47;81.56
67430;BME280;54298;52.076;5.264;2023-03-13T07:02:04;99522.0;;;13.45;81.63
67430;BME280;54298;52.076;5.264;2023-03-13T07:03:41;99513.0;;;13.45;81.94
67430;BME280;54298;52.076;5.264;2023-03-13T07:05:18;99523.0;;;13.41;82.27
67430;BME280;54298;52.076;5.264;2023-03-13T07:08:31;99525.0;;;13.42;82.73
67430;BME280;54298;52.076;5.264;2023-03-13T07:10:09;99527.0;;;13.35;83.51
67430;BME280;54298;52.076;5.264;2023-03-13T07:11:46;99520.0;;;13.4;83.78
67430;BME280;54298;52.076;5.264;2023-03-13T07:13:22;99520.0;;;13.33;84.27
67430;BME280;54298;52.076;5.264;2023-03-13T07:16:34;99526.0;;;13.29;84.97
67430;BME280;54298;52.076;5.264;2023-03-13T07:18:10;99526.0;;;13.36;85.15
67430;BME280;54298;52.076;5.264;2023-03-13T07:19:46;99533.0;;;13.21;86.07
67430;BME280;54298;52.076;5.264;2023-03-13T07:22:58;99535.0;;;13.37;85.64
67430;BME280;54298;52.076;5.264;2023-03-13T07:24:34;99526.0;;;13.24;86.27
67430;BME280;54298;52.076;5.264;2023-03-13T07:26:12;99514.0;;;13.18;86.51
67430;BME280;54298;52.076;5.264;2023-03-13T07:29:26;99524.0;;;13.15;87.07
67430;BME280;54298;52.076;5.264;2023-03-13T07:31:04;99543.0;;;13.05;87.96
67430;BME280;54298;52.076;5.264;2023-03-13T07:32:41;99537.0;;;12.9;89.1
67430;BME280;54298;52.076;5.264;2023-03-13T07:35:53;99532.0;;;13.01;89.16
67430;BME280;54298;52.076;5.264;2023-03-13T07:37:29;99530.0;;;12.99;89.44
67430;BME280;54298;52.076;5.264;2023-03-13T07:39:05;99535.0;;;12.85;90.42
67430;BME280;54298;52.076;5.264;2023-03-13T07:40:47;99530.0;;;12.76;91.03
67430;BME280;54298;52.076;5.264;2023-03-13T07:43:59;99525.0;;;12.83;90.8
67430;BME280;54298;52.076;5.264;2023-03-13T07:45:36;99537.0;;;12.73;91.37
67430;BME280;54298;52.076;5.264;2023-03-13T07:47:12;99539.0;;;12.74;91.32
67430;BME280;54298;52.076;5.264;2023-03-13T07:50:24;99544.0;;;12.76;91.27
67430;BME280;54298;52.076;5.264;2023-03-13T07:52:00;99555.0;;;12.64;91.91
67430;BME280;54298;52.076;5.264;2023-03-13T07:53:36;99548.0;;;12.59;92.41
67430;BME280;54298;52.076;5.264;2023-03-13T07:55:12;99544.0;;;12.63;92.67
67430;BME280;54298;52.076;5.264;2023-03-13T07:58:26;99549.0;;;12.72;92.17
67430;BME280;54298;52.076;5.264;2023-03-13T08:00:04;99545.0;;;12.74;91.86
67430;BME280;54298;52.076;5.264;2023-03-13T08:01:40;99550.0;;;12.71;91.71
67430;BME280;54298;52.076;5.264;2023-03-13T08:04:53;99551.0;;;12.76;91.58
67430;BME280;54298;52.076;5.264;2023-03-13T08:06:30;99551.0;;;12.8;91.3
67430;BME280;54298;52.076;5.264;2023-03-13T08:08:08;99543.0;;;12.77;91.45
67430;BME280;54298;52.076;5.264;2023-03-13T08:11:23;99548.0;;;12.81;91.43
67430;BME280;54298;52.076;5.264;2023-03-13T08:12:59;99543.0;;;12.75;92.09
67430;BME280;54298;52.076;5.264;2023-03-13T08:14:35;99538.0;;;12.84;92.41
67430;BME280;54298;52.076;5.264;2023-03-13T08:16:13;99532.0;;;12.77;93.0
67430;BME280;54298;52.076;5.264;2023-03-13T08:19:26;99530.0;;;12.82;93.35
67430;BME280;54298;52.076;5.264;2023-03-13T08:21:03;99535.0;;;12.81;93.39
67430;BME280;54298;52.076;5.264;2023-03-13T08:22:41;99535.0;;;12.86;93.46
67430;BME280;54298;52.076;5.264;2023-03-13T08:25:54;99533.0;;;12.68;94.5
67430;BME280;54298;52.076;5.264;2023-03-13T08:27:30;99521.0;;;12.64;94.89
67430;BME280;54298;52.076;5.264;2023-03-13T08:29:08;99530.0;;;12.68;94.8
67430;BME280;54298;52.076;5.264;2023-03-13T08:32:21;99517.0;;;12.77;94.67
67430;BME280;54298;52.076;5.264;2023-03-13T08:33:58;99507.0;;;12.68;94.64
67430;BME280;54298;52.076;5.264;2023-03-13T08:35:34;99507.0;;;12.62;94.56
67430;BME280;54298;52.076;5.264;2023-03-13T08:37:14;99517.0;;;12.67;94.89
67430;BME280;54298;52.076;5.264;2023-03-13T08:40:28;99499.0;;;12.69;94.37
67430;BME280;54298;52.076;5.264;2023-03-13T08:42:04;99491.0;;;12.64;94.51
67430;BME280;54298;52.076;5.264;2023-03-13T08:43:43;99486.0;;;12.73;93.65
67430;BME280;54298;52.076;5.264;2023-03-13T08:46:57;99477.0;;;12.69;93.74
67430;BME280;54298;52.076;5.264;2023-03-13T08:48:33;99474.0;;;12.78;93.24
67430;BME280;54298;52.076;5.264;2023-03-13T08:50:10;99480.0;;;12.75;92.95
67430;BME280;54298;52.076;5.264;2023-03-13T08:51:46;99473.0;;;12.73;92.92
67430;BME280;54298;52.076;5.264;2023-03-13T08:54:58;99473.0;;;12.84;92.74
67430;BME280;54298;52.076;5.264;2023-03-13T08:56:35;99459.0;;;12.89;92.05
67430;BME280;54298;52.076;5.264;2023-03-13T08:58:11;99470.0;;;12.99;90.91
67430;BME280;54298;52.076;5.264;2023-03-13T09:01:26;99477.0;;;13.06;90.69
67430;BME280;54298;52.076;5.264;2023-03-13T09:03:03;99484.0;;;13.04;89.78
67430;BME280;54298;52.076;5.264;2023-03-13T09:04:39;99476.0;;;13.11;89.32
67430;BME280;54298;52.076;5.264;2023-03-13T09:07:52;99478.0;;;13.05;88.81
67430;BME280;54298;52.076;5.264;2023-03-13T09:09:28;99481.0;;;13.19;88.57
67430;BME280;54298;52.076;5.264;2023-03-13T09:11:06;99482.0;;;13.21;87.59
67430;BME280;54298;52.076;5.264;2023-03-13T09:12:44;99465.0;;;13.16;87.03
67430;BME280;54298;52.076;5.264;2023-03-13T09:15:57;99470.0;;;13.26;86.82
67430;BME280;54298;52.076;5.264;2023-03-13T09:17:34;99453.0;;;13.32;86.35
67430;BME280;54298;52.076;5.264;2023-03-13T09:19:10;99451.0;;;13.37;85.41
67430;BME280;54298;52.076;5.264;2023-03-13T09:22:22;99438.0;;;13.49;84.93
67430;BME280;54298;52.076;5.264;2023-03-13T09:23:59;99444.0;;;13.66;83.9
67430;BME280;54298;52.076;5.264;2023-03-13T09:25:37;99441.0;;;13.82;83.31
67430;BME280;54298;52.076;5.264;2023-03-13T09:28:49;99428.0;;;13.83;82.25
67430;BME280;54298;52.076;5.264;2023-03-13T09:30:26;99431.0;;;14.05;81.92
67430;BME280;54298;52.076;5.264;2023-03-13T09:32:03;99426.0;;;14.18;81.41
67430;BME280;54298;52.076;5.264;2023-03-13T09:33:38;99426.0;;;14.18;80.42
67430;BME280;54298;52.076;5.264;2023-03-13T09:38:28;99427.0;;;14.35;79.02
67430;BME280;54298;52.076;5.264;2023-03-13T09:40:05;99430.0;;;14.38;78.61
67430;BME280;54298;52.076;5.264;2023-03-13T09:43:38;99430.0;;;14.44;78.41
67430;BME280;54298;52.076;5.264;2023-03-13T09:45:17;99430.0;;;14.56;77.72
67430;BME280;54298;52.076;5.264;2023-03-13T09:47:11;99430.0;;;14.46;77.61
67430;BME280;54298;52.076;5.264;2023-03-13T09:48:54;99416.0;;;14.5;77.52
67430;BME280;54298;52.076;5.264;2023-03-13T09:50:33;99409.0;;;14.55;76.77
67430;BME280;54298;52.076;5.264;2023-03-13T09:53:56;99405.0;;;14.63;76.25
67430;BME280;54298;52.076;5.264;2023-03-13T09:55:36;99403.0;;;14.59;75.52
67430;BME280;54298;52.076;5.264;2023-03-13T09:57:18;99395.0;;;14.66;75.24
67430;BME280;54298;52.076;5.264;2023-03-13T09:59:01;99394.0;;;14.71;74.97
67430;BME280;54298;52.076;5.264;2023-03-13T10:00:47;99395.0;;;14.92;74.84
67430;BME280;54298;52.076;5.264;2023-03-13T10:04:17;99395.0;;;14.95;73.83
67430;BME280;54298;52.076;5.264;2023-03-13T10:06:01;99392.0;;;15.02;73.64
67430;BME280;54298;52.076;5.264;2023-03-13T10:07:41;99394.0;;;15.13;73.13
67430;BME280;54298;52.076;5.264;2023-03-13T10:09:21;99378.0;;;15.15;72.63
67430;BME280;54298;52.076;5.264;2023-03-13T10:12:48;99374.0;;;15.33;72.5
67430;BME280;54298;52.076;5.264;2023-03-13T10:14:29;99382.0;;;15.3;71.8
67430;BME280;54298;52.076;5.264;2023-03-13T10:16:08;99342.0;;;15.36;71.69
67430;BME280;54298;52.076;5.264;2023-03-13T10:17:47;99376.0;;;15.33;70.83
67430;BME280;54298;52.076;5.264;2023-03-13T10:21:14;99366.0;;;15.26;70.75
67430;BME280;54298;52.076;5.264;2023-03-13T10:22:56;99357.0;;;15.28;71.0
67430;BME280;54298;52.076;5.264;2023-03-13T10:24:40;99359.0;;;15.24;70.64
67430;BME280;54298;52.076;5.264;2023-03-13T10:26:22;99366.0;;;15.24;70.8
67430;BME280;54298;52.076;5.264;2023-03-13T10:28:01;99359.0;;;15.28;70.72
67430;BME280;54298;52.076;5.264;2023-03-13T10:31:20;99363.0;;;15.3;69.97
67430;BME280;54298;52.076;5.264;2023-03-13T10:33:17;99362.0;;;15.32;69.72
67430;BME280;54298;52.076;5.264;2023-03-13T10:34:57;99386.0;;;15.3;69.64
67430;BME280;54298;52.076;5.264;2023-03-13T10:36:39;99375.0;;;15.24;69.94
67430;BME280;54298;52.076;5.264;2023-03-13T10:40:11;99365.0;;;15.24;70.0
67430;BME280;54298;52.076;5.264;2023-03-13T10:41:50;99364.0;;;15.2;68.8
67430;BME280;54298;52.076;5.264;2023-03-13T10:43:32;99361.0;;;15.11;67.6
67430;BME280;54298;52.076;5.264;2023-03-13T10:45:14;99359.0;;;15.21;66.53
67430;BME280;54298;52.076;5.264;2023-03-13T10:46:51;99370.0;;;15.17;67.14
67430;BME280;54298;52.076;5.264;2023-03-13T10:50:17;99370.0;;;15.23;68.05
67430;BME280;54298;52.076;5.264;2023-03-13T10:51:57;99371.0;;;15.31;68.13
67430;BME280;54298;52.076;5.264;2023-03-13T10:53:36;99349.0;;;15.27;68.62
67430;BME280;54298;52.076;5.264;2023-03-13T10:55:16;99355.0;;;15.18;68.3
67430;BME280;54298;52.076;5.264;2023-03-13T10:58:46;99345.0;;;15.14;68.66
67430;BME280;54298;52.076;5.264;2023-03-13T11:00:32;99351.0;;;15.18;68.88
67430;BME280;54298;52.076;5.264;2023-03-13T11:02:20;99335.0;;;15.23;68.45
67430;BME280;54298;52.076;5.264;2023-03-13T11:03:58;99328.0;;;15.37;67.8
67430;BME280;54298;52.076;5.264;2023-03-13T11:05:55;99339.0;;;15.44;66.55
67430;BME280;54298;52.076;5.264;2023-03-13T11:09:12;99341.0;;;15.48;65.45
67430;BME280;54298;52.076;5.264;2023-03-13T11:10:53;99327.0;;;15.6;64.6
67430;BME280;54298;52.076;5.264;2023-03-13T11:12:33;99330.0;;;15.71;63.09
67430;BME280;54298;52.076;5.264;2023-03-13T11:14:14;99317.0;;;15.73;62.83
67430;BME280;54298;52.076;5.264;2023-03-13T11:17:36;99309.0;;;15.8;63.2